createdAt,value
2018-11-02T00:00:35.671Z,8.74
2018-11-02T00:01:35.650Z,8.76
2018-11-02T00:02:35.640Z,8.73
2018-11-02T00:03:35.610Z,8.77
2018-11-02T00:04:35.601Z,8.74
2018-11-02T00:05:35.587Z,8.80
2018-11-02T00:06:35.603Z,8.81
2018-11-02T00:07:35.549Z,8.63
2018-11-02T00:08:35.588Z,8.65
2018-11-02T00:09:35.513Z,8.61
2018-11-02T00:10:35.493Z,8.68
2018-11-02T00:11:35.484Z,8.58
2018-11-02T00:12:35.460Z,8.56
2018-11-02T00:13:35.444Z,8.40
2018-11-02T00:14:35.437Z,8.44
2018-11-02T00:15:35.420Z,8.45
2018-11-02T00:16:35.408Z,8.45
2018-11-02T00:17:35.382Z,8.58
2018-11-02T00:18:35.424Z,8.53
2018-11-02T00:19:35.354Z,8.59
2018-11-02T00:20:35.344Z,8.68
2018-11-02T00:21:35.326Z,8.70
2018-11-02T00:22:35.305Z,8.65
2018-11-02T00:23:35.281Z,8.73
2018-11-02T00:24:35.346Z,8.74
2018-11-02T00:25:35.269Z,8.73
2018-11-02T00:26:35.248Z,8.83
2018-11-02T00:27:35.218Z,8.73
2018-11-02T00:28:35.215Z,8.79
2018-11-02T00:29:35.189Z,8.79
2018-11-02T00:30:35.173Z,8.70
2018-11-02T00:31:35.155Z,8.77
2018-11-02T00:32:35.153Z,8.80
2018-11-02T00:33:35.123Z,8.79
2018-11-02T00:34:35.110Z,8.77
2018-11-02T00:35:35.122Z,8.83
2018-11-02T00:36:35.088Z,8.89
2018-11-02T00:37:35.061Z,8.99
2018-11-02T00:38:35.054Z,8.94
2018-11-02T00:39:35.133Z,8.94
2018-11-02T00:40:35.018Z,8.91
2018-11-02T00:41:35.082Z,9.10
2018-11-02T00:42:34.975Z,8.94
2018-11-02T00:43:34.973Z,8.95
2018-11-02T00:44:34.958Z,9.02
2018-11-02T00:45:34.941Z,9.02
2018-11-02T00:46:34.980Z,9.02
2018-11-02T00:47:35.051Z,9.05
2018-11-02T00:48:34.924Z,9.10
2018-11-02T00:49:34.881Z,8.98
2018-11-02T00:50:34.849Z,9.04
2018-11-02T00:51:34.844Z,9.13
2018-11-02T00:52:34.833Z,9.13
2018-11-02T00:53:34.838Z,9.14
2018-11-02T00:54:34.781Z,9.13
2018-11-02T00:55:34.767Z,9.17
2018-11-02T00:56:34.754Z,9.18
2018-11-02T00:57:34.792Z,9.20
2018-11-02T00:58:34.733Z,9.21
2018-11-02T00:59:34.700Z,9.23
2018-11-02T01:00:34.696Z,9.33
2018-11-02T01:01:34.677Z,9.29
2018-11-02T01:02:34.659Z,9.28
2018-11-02T01:03:34.728Z,9.36
2018-11-02T01:04:34.631Z,9.32
2018-11-02T01:05:34.608Z,9.32
2018-11-02T01:06:34.608Z,9.33
2018-11-02T01:07:34.575Z,9.33
2018-11-02T01:08:34.561Z,9.42
2018-11-02T01:09:34.557Z,9.47
2018-11-02T01:10:34.523Z,9.43
2018-11-02T01:11:34.555Z,9.40
2018-11-02T01:12:34.501Z,9.42
2018-11-02T01:13:34.475Z,9.46
2018-11-02T01:14:34.513Z,9.54
2018-11-02T01:15:34.483Z,9.54
2018-11-02T01:16:34.479Z,9.53
2018-11-02T01:17:34.418Z,9.56
2018-11-02T01:18:34.409Z,9.65
2018-11-02T01:19:34.398Z,9.69
2018-11-02T01:20:34.431Z,9.74
2018-11-02T01:21:34.371Z,9.79
2018-11-02T01:22:34.345Z,9.81
2018-11-02T01:23:34.324Z,9.81
2018-11-02T01:24:34.295Z,9.91
2018-11-02T01:25:34.285Z,9.91
2018-11-02T01:26:34.297Z,9.91
2018-11-02T01:27:34.265Z,9.94
2018-11-02T01:28:34.234Z,9.94
2018-11-02T01:29:34.228Z,10.02
2018-11-02T01:30:34.218Z,9.96
2018-11-02T01:31:34.250Z,9.90
2018-11-02T01:32:34.188Z,9.90
2018-11-02T01:33:34.161Z,9.89
2018-11-02T01:34:34.192Z,9.89
2018-11-02T01:35:34.123Z,9.97
2018-11-02T01:36:34.117Z,9.93
2018-11-02T01:37:34.096Z,9.93
2018-11-02T01:38:34.081Z,9.94
2018-11-02T01:39:34.104Z,9.93
2018-11-02T01:40:34.058Z,9.96
2018-11-02T01:41:34.039Z,9.93
2018-11-02T01:42:34.046Z,9.96
2018-11-02T01:43:34.043Z,9.96
2018-11-02T01:44:33.986Z,9.90
2018-11-02T01:45:33.975Z,9.89
2018-11-02T01:46:33.954Z,9.90
2018-11-02T01:47:33.962Z,9.97
2018-11-02T01:48:33.939Z,9.96
2018-11-02T01:49:33.904Z,9.91
2018-11-02T01:50:33.896Z,9.91
2018-11-02T01:51:33.876Z,9.89
2018-11-02T01:52:33.849Z,9.87
2018-11-02T01:53:33.901Z,9.97
2018-11-02T01:54:33.839Z,9.87
2018-11-02T01:55:33.813Z,9.91
2018-11-02T01:56:33.789Z,9.89
2018-11-02T01:57:33.777Z,9.76
2018-11-02T01:58:33.761Z,9.93
2018-11-02T01:59:33.745Z,9.81
2018-11-02T02:00:33.739Z,9.81
2018-11-02T02:01:33.716Z,9.79
2018-11-02T02:02:33.703Z,9.79
2018-11-02T02:03:33.743Z,9.78
2018-11-02T02:04:33.652Z,9.84
2018-11-02T02:05:33.645Z,9.86
2018-11-02T02:06:33.621Z,9.83
2018-11-02T02:07:33.620Z,9.75
2018-11-02T02:08:33.603Z,9.72
2018-11-02T02:09:33.590Z,9.65
2018-11-02T02:10:33.558Z,9.54
2018-11-02T02:11:33.544Z,9.56
2018-11-02T02:12:33.528Z,9.53
2018-11-02T02:13:33.520Z,9.46
2018-11-02T02:14:33.570Z,9.36
2018-11-02T02:15:33.475Z,9.18
2018-11-02T02:16:33.472Z,9.21
2018-11-02T02:17:33.458Z,9.23
2018-11-02T02:18:33.429Z,9.20
2018-11-02T02:19:33.426Z,9.28
2018-11-02T02:20:33.428Z,9.18
2018-11-02T02:21:33.566Z,9.18
2018-11-02T02:22:33.366Z,9.20
2018-11-02T02:23:33.355Z,9.15
2018-11-02T02:24:33.342Z,9.10
2018-11-02T02:25:33.335Z,9.01
2018-11-02T02:26:33.313Z,9.08
2018-11-02T02:27:33.305Z,9.04
2018-11-02T02:28:33.278Z,9.04
2018-11-02T02:29:33.306Z,8.96
2018-11-02T02:30:33.254Z,8.98
2018-11-02T02:31:33.232Z,8.99
2018-11-02T02:32:33.209Z,8.99
2018-11-02T02:33:33.200Z,8.96
2018-11-02T02:34:33.186Z,8.99
2018-11-02T02:35:33.226Z,8.94
2018-11-02T02:36:33.154Z,8.96
2018-11-02T02:37:33.172Z,9.08
2018-11-02T02:38:33.106Z,8.96
2018-11-02T02:39:33.091Z,9.08
2018-11-02T02:40:33.097Z,9.21
2018-11-02T02:41:33.061Z,9.23
2018-11-02T02:42:33.046Z,9.18
2018-11-02T02:43:33.028Z,9.23
2018-11-02T02:44:33.024Z,9.31
2018-11-02T02:45:33.006Z,9.35
2018-11-02T02:46:32.980Z,9.36
2018-11-02T02:47:32.970Z,9.35
2018-11-02T02:48:32.945Z,9.40
2018-11-02T02:49:32.973Z,9.40
2018-11-02T02:50:32.942Z,9.35
2018-11-02T02:51:32.913Z,9.32
2018-11-02T02:52:32.891Z,9.36
2018-11-02T02:53:32.873Z,9.47
2018-11-02T02:54:32.851Z,9.54
2018-11-02T02:55:32.846Z,9.50
2018-11-02T02:56:32.878Z,9.47
2018-11-02T02:57:32.814Z,9.46
2018-11-02T02:58:32.785Z,9.51
2018-11-02T02:59:32.775Z,9.57
2018-11-02T03:00:32.767Z,9.61
2018-11-02T03:01:32.749Z,9.51
2018-11-02T03:02:32.760Z,9.53
2018-11-02T03:03:32.706Z,9.64
2018-11-02T03:04:32.688Z,9.68
2018-11-02T03:05:32.670Z,9.69
2018-11-02T03:06:32.665Z,9.72
2018-11-02T03:07:32.681Z,9.71
2018-11-02T03:08:32.629Z,9.75
2018-11-02T03:09:32.606Z,9.69
2018-11-02T03:10:32.722Z,9.81
2018-11-02T03:11:32.589Z,9.97
2018-11-02T03:12:32.565Z,9.91
2018-11-02T03:13:32.553Z,9.90
2018-11-02T03:14:32.540Z,9.89
2018-11-02T03:15:32.528Z,9.90
2018-11-02T03:16:32.502Z,9.90
2018-11-02T03:17:32.483Z,9.83
2018-11-02T03:18:32.590Z,9.79
2018-11-02T03:19:32.461Z,9.81
2018-11-02T03:20:32.442Z,9.83
2018-11-02T03:21:32.447Z,9.76
2018-11-02T03:22:32.523Z,9.84
2018-11-02T03:23:32.381Z,9.79
2018-11-02T03:24:32.381Z,9.89
2018-11-02T03:25:32.350Z,9.89
2018-11-02T03:26:32.338Z,9.96
2018-11-02T03:27:32.352Z,9.94
2018-11-02T03:28:32.315Z,9.94
2018-11-02T03:29:32.303Z,10.05
2018-11-02T03:30:32.285Z,9.96
2018-11-02T03:31:32.331Z,10.01
2018-11-02T03:32:32.278Z,10.05
2018-11-02T03:33:32.231Z,10.08
2018-11-02T03:34:32.218Z,10.08
2018-11-02T03:35:32.252Z,10.01
2018-11-02T03:36:32.190Z,9.99
2018-11-02T03:37:32.197Z,10.04
2018-11-02T03:38:32.158Z,10.08
2018-11-02T03:39:32.141Z,10.07
2018-11-02T03:40:32.129Z,10.08
2018-11-02T03:41:32.116Z,10.17
2018-11-02T03:42:32.111Z,10.11
2018-11-02T03:43:32.064Z,10.20
2018-11-02T03:44:32.060Z,10.17
2018-11-02T03:45:32.062Z,10.14
2018-11-02T03:46:32.018Z,10.15
2018-11-02T03:47:31.998Z,10.17
2018-11-02T03:48:31.983Z,10.14
2018-11-02T03:49:31.978Z,10.22
2018-11-02T03:50:32.007Z,10.18
2018-11-02T03:51:31.937Z,10.25
2018-11-02T03:52:31.926Z,10.26
2018-11-02T03:53:31.904Z,10.17
2018-11-02T03:54:31.897Z,10.18
2018-11-02T03:55:31.884Z,10.15
2018-11-02T03:56:31.935Z,10.23
2018-11-02T03:57:31.911Z,10.22
2018-11-02T03:58:31.834Z,10.20
2018-11-02T03:59:31.823Z,10.15
2018-11-02T04:00:31.827Z,10.02
2018-11-02T04:01:31.791Z,9.99
2018-11-02T04:02:31.770Z,10.07
2018-11-02T04:03:31.752Z,10.05
2018-11-02T04:04:31.729Z,10.02
2018-11-02T04:05:31.718Z,10.04
2018-11-02T04:06:31.704Z,10.04
2018-11-02T04:07:31.680Z,10.08
2018-11-02T04:08:31.703Z,10.05
2018-11-02T04:09:31.705Z,10.07
2018-11-02T04:10:31.639Z,10.05
2018-11-02T04:11:31.615Z,10.14
2018-11-02T04:12:31.647Z,10.04
2018-11-02T04:13:31.594Z,10.07
2018-11-02T04:14:31.578Z,10.02
2018-11-02T04:15:31.596Z,9.99
2018-11-02T04:16:31.549Z,10.05
2018-11-02T04:17:31.594Z,10.01
2018-11-02T04:18:31.503Z,10.11
2018-11-02T04:19:31.520Z,9.91
2018-11-02T04:20:31.469Z,10.07
2018-11-02T04:21:31.461Z,10.08
2018-11-02T04:22:31.443Z,10.11
2018-11-02T04:23:31.468Z,9.99
2018-11-02T04:24:31.434Z,10.02
2018-11-02T04:25:31.399Z,10.07
2018-11-02T04:26:31.388Z,10.14
2018-11-02T04:27:31.398Z,10.09
2018-11-02T04:28:31.347Z,10.15
2018-11-02T04:29:31.353Z,10.18
2018-11-02T04:30:31.319Z,10.08
2018-11-02T04:31:31.301Z,10.11
2018-11-02T04:32:31.292Z,10.15
2018-11-02T04:33:31.273Z,10.23
2018-11-02T04:34:31.256Z,10.09
2018-11-02T04:35:31.266Z,10.09
2018-11-02T04:36:31.215Z,10.07
2018-11-02T04:37:31.215Z,10.09
2018-11-02T04:38:31.181Z,9.96
2018-11-02T04:39:31.169Z,10.15
2018-11-02T04:40:31.167Z,10.20
2018-11-02T04:41:31.138Z,10.20
2018-11-02T04:42:31.115Z,10.08
2018-11-02T04:43:31.111Z,10.09
2018-11-02T04:44:31.126Z,10.07
2018-11-02T04:45:31.120Z,10.12
2018-11-02T04:46:31.065Z,10.07
2018-11-02T04:47:31.055Z,10.08
2018-11-02T04:48:31.020Z,10.15
2018-11-02T04:49:31.011Z,10.02
2018-11-02T04:50:31.016Z,10.07
2018-11-02T04:51:31.016Z,10.07
2018-11-02T04:52:30.974Z,10.18
2018-11-02T04:53:30.953Z,10.02
2018-11-02T04:54:30.931Z,10.05
2018-11-02T04:55:30.904Z,9.97
2018-11-02T04:56:30.926Z,10.04
2018-11-02T04:57:30.921Z,10.07
2018-11-02T04:58:30.864Z,10.14
2018-11-02T04:59:30.852Z,10.15
2018-11-02T05:00:30.832Z,10.18
2018-11-02T05:01:30.989Z,10.20
2018-11-02T05:02:30.799Z,10.15
2018-11-02T05:03:30.788Z,10.14
2018-11-02T05:04:30.836Z,10.22
2018-11-02T05:05:30.770Z,10.12
2018-11-02T05:06:30.744Z,10.18
2018-11-02T05:07:30.760Z,10.14
2018-11-02T05:08:30.708Z,10.18
2018-11-02T05:09:30.714Z,10.14
2018-11-02T05:10:30.673Z,10.14
2018-11-02T05:11:30.795Z,10.02
2018-11-02T05:12:30.632Z,10.05
2018-11-02T05:13:30.631Z,10.01
2018-11-02T05:14:30.657Z,10.04
2018-11-02T05:15:30.601Z,10.02
2018-11-02T05:16:30.592Z,10.17
2018-11-02T05:17:30.567Z,10.08
2018-11-02T05:18:30.545Z,10.12
2018-11-02T05:19:30.534Z,10.20
2018-11-02T05:20:30.515Z,10.12
2018-11-02T05:21:30.572Z,10.17
2018-11-02T05:22:30.470Z,10.08
2018-11-02T05:23:30.467Z,10.11
2018-11-02T05:24:30.445Z,10.17
2018-11-02T05:25:30.497Z,10.04
2018-11-02T05:26:30.404Z,10.02
2018-11-02T05:27:30.392Z,10.04
2018-11-02T05:28:30.378Z,10.17
2018-11-02T05:29:30.357Z,10.07
2018-11-02T05:30:30.385Z,10.07
2018-11-02T05:31:30.364Z,10.08
2018-11-02T05:32:30.322Z,10.18
2018-11-02T05:33:30.315Z,10.14
2018-11-02T05:34:30.292Z,10.18
2018-11-02T05:35:30.267Z,10.26
2018-11-02T05:36:30.245Z,10.22
2018-11-02T05:37:30.241Z,10.15
2018-11-02T05:38:30.245Z,10.09
2018-11-02T05:39:30.269Z,10.02
2018-11-02T05:40:30.182Z,10.01
2018-11-02T05:41:30.212Z,9.99
2018-11-02T05:42:30.154Z,9.87
2018-11-02T05:43:30.137Z,9.89
2018-11-02T05:44:30.132Z,10.04
2018-11-02T05:45:30.104Z,9.90
2018-11-02T05:46:30.108Z,10.01
2018-11-02T05:47:30.350Z,10.09
2018-11-02T05:48:30.087Z,9.97
2018-11-02T05:49:30.088Z,9.99
2018-11-02T05:50:30.022Z,10.05
2018-11-02T05:51:30.001Z,9.97
2018-11-02T05:52:30.582Z,9.99
2018-11-02T05:53:30.024Z,9.99
2018-11-02T05:54:29.996Z,10.02
2018-11-02T05:55:30.461Z,10.12
2018-11-02T05:56:29.934Z,10.01
2018-11-02T05:57:29.901Z,10.05
2018-11-02T05:58:29.893Z,10.07
2018-11-02T05:59:30.023Z,10.07
2018-11-02T06:00:29.859Z,10.04
2018-11-02T06:01:29.890Z,10.12
2018-11-02T06:02:29.822Z,10.11
2018-11-02T06:03:29.873Z,10.04
2018-11-02T06:04:29.783Z,10.12
2018-11-02T06:05:29.772Z,10.09
2018-11-02T06:06:29.756Z,10.07
2018-11-02T06:07:29.738Z,9.99
2018-11-02T06:08:29.761Z,9.90
2018-11-02T06:09:29.763Z,9.87
2018-11-02T06:10:29.726Z,9.83
2018-11-02T06:11:29.670Z,9.69
2018-11-02T06:12:29.657Z,9.60
2018-11-02T06:13:29.720Z,9.60
2018-11-02T06:14:29.661Z,9.58
2018-11-02T06:15:29.609Z,9.54
2018-11-02T06:16:29.603Z,9.50
2018-11-02T06:17:29.614Z,9.53
2018-11-02T06:18:29.558Z,9.53
2018-11-02T06:19:29.538Z,9.48
2018-11-02T06:20:29.571Z,9.48
2018-11-02T06:21:29.521Z,9.51
2018-11-02T06:22:29.501Z,9.47
2018-11-02T06:23:29.487Z,9.43
2018-11-02T06:24:29.646Z,9.39
2018-11-02T06:25:29.455Z,9.39
2018-11-02T06:26:29.425Z,9.31
2018-11-02T06:27:29.422Z,9.33
2018-11-02T06:28:29.398Z,9.39
2018-11-02T06:29:29.387Z,9.38
2018-11-02T06:30:29.406Z,9.36
2018-11-02T06:31:29.356Z,9.28
2018-11-02T06:32:29.367Z,9.20
2018-11-02T06:33:29.344Z,9.21
2018-11-02T06:34:29.301Z,9.18
2018-11-02T06:35:29.279Z,9.24
2018-11-02T06:36:29.283Z,9.28
2018-11-02T06:37:29.261Z,9.23
2018-11-02T06:38:29.303Z,9.20
2018-11-02T06:39:29.208Z,9.17
2018-11-02T06:40:29.219Z,9.18
2018-11-02T06:41:29.214Z,9.13
2018-11-02T06:42:29.163Z,9.14
2018-11-02T06:43:29.148Z,9.15
2018-11-02T06:44:29.129Z,9.13
2018-11-02T06:45:29.123Z,9.11
2018-11-02T06:46:29.134Z,9.08
2018-11-02T06:47:29.075Z,9.05
2018-11-02T06:48:29.073Z,9.11
2018-11-02T06:49:29.054Z,9.15
2018-11-02T06:50:29.037Z,9.10
2018-11-02T06:51:29.039Z,9.08
2018-11-02T06:52:29.014Z,9.08
2018-11-02T06:53:28.983Z,9.02
2018-11-02T06:54:28.978Z,9.13
2018-11-02T06:55:28.983Z,9.01
2018-11-02T06:56:28.927Z,9.05
2018-11-02T06:57:28.925Z,9.08
2018-11-02T06:58:28.938Z,9.10
2018-11-02T06:59:29.068Z,9.05
2018-11-02T07:00:29.022Z,9.08
2018-11-02T07:01:28.844Z,9.15
2018-11-02T07:02:28.827Z,9.10
2018-11-02T07:03:28.844Z,9.11
2018-11-02T07:04:28.793Z,9.10
2018-11-02T07:05:28.776Z,9.11
2018-11-02T07:06:28.830Z,9.10
2018-11-02T07:07:28.907Z,9.04
2018-11-02T07:08:28.786Z,9.04
2018-11-02T07:09:28.719Z,9.05
2018-11-02T07:10:28.697Z,8.99
2018-11-02T07:11:28.692Z,9.05
2018-11-02T07:12:28.667Z,9.05
2018-11-02T07:13:28.642Z,9.08
2018-11-02T07:14:28.622Z,9.08
2018-11-02T07:15:28.621Z,9.05
2018-11-02T07:16:28.590Z,9.11
2018-11-02T07:17:28.643Z,9.01
2018-11-02T07:18:28.570Z,9.04
2018-11-02T07:19:28.545Z,9.05
2018-11-02T07:20:28.524Z,8.98
2018-11-02T07:21:28.544Z,8.95
2018-11-02T07:22:28.503Z,9.01
2018-11-02T07:23:28.472Z,9.04
2018-11-02T07:24:28.460Z,9.02
2018-11-02T07:25:28.457Z,9.02
2018-11-02T07:26:28.450Z,9.02
2018-11-02T07:27:28.417Z,8.99
2018-11-02T07:28:28.400Z,9.05
2018-11-02T07:29:28.438Z,8.96
2018-11-02T07:30:28.355Z,8.94
2018-11-02T07:31:28.342Z,9.01
2018-11-02T07:32:28.337Z,8.96
2018-11-02T07:33:28.311Z,8.99
2018-11-02T07:34:28.324Z,8.92
2018-11-02T07:35:28.288Z,8.98
2018-11-02T07:36:28.257Z,8.99
2018-11-02T07:37:28.246Z,8.95
2018-11-02T07:38:28.228Z,8.95
2018-11-02T07:39:28.211Z,8.92
2018-11-02T07:40:28.228Z,9.02
2018-11-02T07:41:28.182Z,8.98
2018-11-02T07:42:28.167Z,9.02
2018-11-02T07:43:28.208Z,8.99
2018-11-02T07:44:28.133Z,8.96
2018-11-02T07:45:28.122Z,8.99
2018-11-02T07:46:28.085Z,8.96
2018-11-02T07:47:28.116Z,8.92
2018-11-02T07:48:28.068Z,8.92
2018-11-02T07:49:28.096Z,8.98
2018-11-02T07:50:28.024Z,9.13
2018-11-02T07:51:28.008Z,9.01
2018-11-02T07:52:28.003Z,8.98
2018-11-02T07:53:28.016Z,9.02
2018-11-02T07:54:27.957Z,9.04
2018-11-02T07:55:27.935Z,9.10
2018-11-02T07:56:27.919Z,9.08
2018-11-02T07:57:27.909Z,9.04
2018-11-02T07:58:27.953Z,9.13
2018-11-02T07:59:27.869Z,9.10
2018-11-02T08:00:27.852Z,9.04
2018-11-02T08:01:27.841Z,9.15
2018-11-02T08:02:27.831Z,9.13
2018-11-02T08:03:27.817Z,9.18
2018-11-02T08:04:27.806Z,9.17
2018-11-02T08:05:27.775Z,9.15
2018-11-02T08:06:27.758Z,9.20
2018-11-02T08:07:27.730Z,9.18
2018-11-02T08:08:27.715Z,9.18
2018-11-02T08:09:27.714Z,9.15
2018-11-02T08:10:27.719Z,9.17
2018-11-02T08:11:28.067Z,9.17
2018-11-02T08:12:27.662Z,9.20
2018-11-02T08:13:27.670Z,9.17
2018-11-02T08:14:27.622Z,9.17
2018-11-02T08:15:27.601Z,9.11
2018-11-02T08:16:27.614Z,9.13
2018-11-02T08:17:27.649Z,9.05
2018-11-02T08:18:27.554Z,9.10
2018-11-02T08:19:27.533Z,9.14
2018-11-02T08:20:27.530Z,9.21
2018-11-02T08:21:27.541Z,9.18
2018-11-02T08:22:27.504Z,9.23
2018-11-02T08:23:27.472Z,9.29
2018-11-02T08:24:27.639Z,9.21
2018-11-02T08:25:27.443Z,9.18
2018-11-02T08:26:27.476Z,9.20
2018-11-02T08:27:27.395Z,9.17
2018-11-02T08:28:27.395Z,9.15
2018-11-02T08:29:27.372Z,9.20
2018-11-02T08:30:27.351Z,9.17
2018-11-02T08:31:27.338Z,9.20
2018-11-02T08:32:27.330Z,9.26
2018-11-02T08:33:27.305Z,9.28
2018-11-02T08:34:27.367Z,9.29
2018-11-02T08:35:27.265Z,9.20
2018-11-02T08:36:28.859Z,9.17
2018-11-02T08:37:27.249Z,9.23
2018-11-02T08:38:27.250Z,9.20
2018-11-02T08:39:27.217Z,9.33
2018-11-02T08:40:27.174Z,9.35
2018-11-02T08:41:27.216Z,9.35
2018-11-02T08:42:27.415Z,9.40
2018-11-02T08:43:27.227Z,9.48
2018-11-02T08:44:27.176Z,9.39
2018-11-02T08:45:27.110Z,9.39
2018-11-02T08:46:27.156Z,9.46
2018-11-02T08:47:27.081Z,9.50
2018-11-02T08:48:27.048Z,9.53
2018-11-02T08:49:27.043Z,9.50
2018-11-02T08:50:27.011Z,9.47
2018-11-02T08:51:27.038Z,9.54
2018-11-02T08:52:27.867Z,9.57
2018-11-02T08:53:26.983Z,9.57
2018-11-02T08:54:26.960Z,9.65
2018-11-02T08:55:27.072Z,9.60
2018-11-02T08:56:26.939Z,9.68
2018-11-02T08:57:26.912Z,9.72
2018-11-02T08:58:27.535Z,9.64
2018-11-02T08:59:27.090Z,9.68
2018-11-02T09:00:26.849Z,9.68
2018-11-02T09:01:26.834Z,9.69
2018-11-02T09:02:26.811Z,9.66
2018-11-02T09:03:26.819Z,9.64
2018-11-02T09:04:26.824Z,9.68
2018-11-02T09:05:26.765Z,9.66
2018-11-02T09:06:26.761Z,9.64
2018-11-02T09:07:26.735Z,9.57
2018-11-02T09:08:26.759Z,9.60
2018-11-02T09:09:26.705Z,9.66
2018-11-02T09:10:26.696Z,9.65
2018-11-02T09:11:26.677Z,9.68
2018-11-02T09:12:26.655Z,9.69
2018-11-02T09:13:26.636Z,9.69
2018-11-02T09:14:26.651Z,9.58
2018-11-02T09:15:26.612Z,9.69
2018-11-02T09:16:26.770Z,9.65
2018-11-02T09:17:26.708Z,9.64
2018-11-02T09:18:26.655Z,9.61
2018-11-02T09:19:26.733Z,9.54
2018-11-02T09:20:26.520Z,9.61
2018-11-02T09:21:26.739Z,9.72
2018-11-02T09:22:26.490Z,9.72
2018-11-02T09:23:26.484Z,9.76
2018-11-02T09:24:26.457Z,9.72
2018-11-02T09:25:26.447Z,9.83
2018-11-02T09:26:26.798Z,9.75
2018-11-02T09:27:32.408Z,9.93
2018-11-02T09:28:26.396Z,9.94
2018-11-02T09:29:26.380Z,9.91
2018-11-02T09:30:26.383Z,9.96
2018-11-02T09:31:31.447Z,9.89
2018-11-02T09:32:26.336Z,10.04
2018-11-02T09:33:26.321Z,10.01
2018-11-02T09:34:26.337Z,10.07
2018-11-02T09:35:26.323Z,10.01
2018-11-02T09:36:26.262Z,9.96
2018-11-02T09:37:26.245Z,9.97
2018-11-02T09:38:26.238Z,10.05
2018-11-02T09:39:26.214Z,10.08
2018-11-02T09:40:26.353Z,9.89
2018-11-02T09:41:26.188Z,9.93
2018-11-02T09:42:26.189Z,9.87
2018-11-02T09:43:26.149Z,9.81
2018-11-02T09:44:26.129Z,9.75
2018-11-02T09:45:26.120Z,9.83
2018-11-02T09:46:26.142Z,9.81
2018-11-02T09:47:26.080Z,9.79
2018-11-02T09:48:26.090Z,9.81
2018-11-02T09:49:26.056Z,9.89
2018-11-02T09:50:26.037Z,9.91
2018-11-02T09:51:26.120Z,9.91
2018-11-02T09:52:26.020Z,9.91
2018-11-02T09:53:25.991Z,9.99
2018-11-02T09:54:25.972Z,9.91
2018-11-02T09:55:25.963Z,9.99
2018-11-02T09:56:25.995Z,10.09
2018-11-02T09:57:25.941Z,10.01
2018-11-02T09:58:25.912Z,10.04
2018-11-02T09:59:25.915Z,10.11
2018-11-02T10:00:25.877Z,10.14
2018-11-02T10:01:25.875Z,10.18
2018-11-02T10:02:25.873Z,10.05
2018-11-02T10:03:25.890Z,10.01
2018-11-02T10:04:25.824Z,10.05
2018-11-02T10:05:25.812Z,10.05
2018-11-02T10:06:25.775Z,9.97
2018-11-02T10:07:25.773Z,10.08
2018-11-02T10:08:25.777Z,10.02
2018-11-02T10:09:25.733Z,10.08
2018-11-02T10:10:25.709Z,10.01
2018-11-02T10:11:25.707Z,10.07
2018-11-02T10:12:25.695Z,10.22
2018-11-02T10:13:25.806Z,10.17
2018-11-02T10:14:25.795Z,10.20
2018-11-02T10:15:25.648Z,10.17
2018-11-02T10:16:25.616Z,10.25
2018-11-02T10:17:25.672Z,10.25
2018-11-02T10:18:25.593Z,10.23
2018-11-02T10:19:25.579Z,10.22
2018-11-02T10:20:25.559Z,10.25
2018-11-02T10:21:25.548Z,10.20
2018-11-02T10:22:25.522Z,10.18
2018-11-02T10:23:25.563Z,10.17
2018-11-02T10:24:25.487Z,10.22
2018-11-02T10:25:25.476Z,10.20
2018-11-02T10:26:25.475Z,10.20
2018-11-02T10:27:25.455Z,10.23
2018-11-02T10:28:25.429Z,10.18
2018-11-02T10:29:25.422Z,10.18
2018-11-02T10:30:25.391Z,10.22
2018-11-02T10:31:25.675Z,10.20
2018-11-02T10:32:25.374Z,10.15
2018-11-02T10:33:25.390Z,10.20
2018-11-02T10:34:25.385Z,10.09
2018-11-02T10:35:25.398Z,10.11
2018-11-02T10:36:25.300Z,10.15
2018-11-02T10:37:25.284Z,10.05
2018-11-02T10:38:25.276Z,10.11
2018-11-02T10:39:25.330Z,10.07
2018-11-02T10:40:25.283Z,10.02
2018-11-02T10:41:25.237Z,10.09
2018-11-02T10:42:25.202Z,10.09
2018-11-02T10:43:25.189Z,9.99
2018-11-02T10:44:25.272Z,10.04
2018-11-02T10:45:25.250Z,10.07
2018-11-02T10:46:25.141Z,10.14
2018-11-02T10:47:25.131Z,10.17
2018-11-02T10:48:25.126Z,10.22
2018-11-02T10:49:25.198Z,10.18
2018-11-02T10:50:25.079Z,10.18
2018-11-02T10:51:25.066Z,10.29
2018-11-02T10:52:25.085Z,10.22
2018-11-02T10:53:25.038Z,10.20
2018-11-02T10:54:25.040Z,10.23
2018-11-02T10:55:25.007Z,10.32
2018-11-02T10:56:25.013Z,10.32
2018-11-02T10:57:24.961Z,10.42
2018-11-02T10:58:24.951Z,10.53
2018-11-02T10:59:24.942Z,10.60
2018-11-02T11:00:24.930Z,10.60
2018-11-02T11:01:24.974Z,10.64
2018-11-02T11:02:24.896Z,10.60
2018-11-02T11:03:24.873Z,10.67
2018-11-02T11:04:24.870Z,10.59
2018-11-02T11:05:24.868Z,10.60
2018-11-02T11:06:24.867Z,10.63
2018-11-02T11:07:24.812Z,10.53
2018-11-02T11:08:24.832Z,10.48
2018-11-02T11:09:24.777Z,10.34
2018-11-02T11:10:24.760Z,10.38
2018-11-02T11:11:24.746Z,10.33
2018-11-02T11:12:24.829Z,10.25
2018-11-02T11:13:25.191Z,10.23
2018-11-02T11:14:24.710Z,10.18
2018-11-02T11:15:24.705Z,10.11
2018-11-02T11:16:25.446Z,10.05
2018-11-02T11:17:24.647Z,10.02
2018-11-02T11:18:24.638Z,9.96
2018-11-02T11:19:24.669Z,9.79
2018-11-02T11:20:24.611Z,9.81
2018-11-02T11:21:24.669Z,9.76
2018-11-02T11:22:24.572Z,9.71
2018-11-02T11:23:24.707Z,9.66
2018-11-02T11:24:24.558Z,9.76
2018-11-02T11:25:24.512Z,9.75
2018-11-02T11:26:24.598Z,9.72
2018-11-02T11:27:24.572Z,9.79
2018-11-02T11:28:24.494Z,9.81
2018-11-02T11:29:24.543Z,9.78
2018-11-02T11:30:25.293Z,9.86
2018-11-02T11:31:24.434Z,9.91
2018-11-02T11:32:24.448Z,9.99
2018-11-02T11:33:24.410Z,10.05
2018-11-02T11:34:24.391Z,10.18
2018-11-02T11:35:24.811Z,10.20
2018-11-02T11:36:24.363Z,10.29
2018-11-02T11:37:24.379Z,10.38
2018-11-02T11:38:24.324Z,10.40
2018-11-02T11:39:24.299Z,10.32
2018-11-02T11:40:24.284Z,10.42
2018-11-02T11:41:24.470Z,10.45
2018-11-02T11:42:24.555Z,10.51
2018-11-02T11:43:24.251Z,10.48
2018-11-02T11:44:24.243Z,10.55
2018-11-02T11:45:24.235Z,10.56
2018-11-02T11:46:24.194Z,10.63
2018-11-02T11:47:24.207Z,10.59
2018-11-02T11:48:24.440Z,10.60
2018-11-02T11:49:24.653Z,10.60
2018-11-02T11:50:24.817Z,10.73
2018-11-02T11:51:24.702Z,10.66
2018-11-02T11:52:24.787Z,10.63
2018-11-02T11:53:24.905Z,10.59
2018-11-02T11:54:24.871Z,10.56
2018-11-02T11:55:24.045Z,10.63
2018-11-02T11:56:24.719Z,10.56
2018-11-02T11:57:25.061Z,10.67
2018-11-02T11:58:24.455Z,10.66
2018-11-02T11:59:24.615Z,10.64
2018-11-02T12:00:24.017Z,10.52
2018-11-02T12:01:23.958Z,10.52
2018-11-02T12:02:24.006Z,10.56
2018-11-02T12:03:23.937Z,10.63
2018-11-02T12:04:24.032Z,10.59
2018-11-02T12:05:23.925Z,10.56
2018-11-02T12:06:23.895Z,10.66
2018-11-02T12:07:23.874Z,10.55
2018-11-02T12:08:23.851Z,10.68
2018-11-02T12:09:23.883Z,10.55
2018-11-02T12:10:23.943Z,10.56
2018-11-02T12:11:23.817Z,10.56
2018-11-02T12:12:23.809Z,10.59
2018-11-02T12:13:24.074Z,10.47
2018-11-02T12:14:23.757Z,10.48
2018-11-02T12:15:23.780Z,10.52
2018-11-02T12:16:23.757Z,10.40
2018-11-02T12:17:23.709Z,10.34
2018-11-02T12:18:23.689Z,10.38
2018-11-02T12:19:23.703Z,10.25
2018-11-02T12:20:23.966Z,10.27
2018-11-02T12:21:23.650Z,10.22
2018-11-02T12:22:23.631Z,10.22
2018-11-02T12:23:24.085Z,10.18
2018-11-02T12:24:23.633Z,10.14
2018-11-02T12:25:23.594Z,10.01
2018-11-02T12:26:23.573Z,10.02
2018-11-02T12:27:23.553Z,10.04
2018-11-02T12:28:23.604Z,9.94
2018-11-02T12:29:23.526Z,9.93
2018-11-02T12:30:23.525Z,9.90
2018-11-02T12:31:23.498Z,9.79
2018-11-02T12:32:23.477Z,9.79
2018-11-02T12:33:23.558Z,9.79
2018-11-02T12:34:23.460Z,9.78
2018-11-02T12:35:23.430Z,9.76
2018-11-02T12:36:23.478Z,9.75
2018-11-02T12:37:23.412Z,9.79
2018-11-02T12:38:23.385Z,9.79
2018-11-02T12:39:23.381Z,9.84
2018-11-02T12:40:23.356Z,9.75
2018-11-02T12:41:23.335Z,9.69
2018-11-02T12:42:23.372Z,9.74
2018-11-02T12:43:23.342Z,9.79
2018-11-02T12:44:23.290Z,9.78
2018-11-02T12:45:23.293Z,9.79
2018-11-02T12:46:23.266Z,9.81
2018-11-02T12:47:23.235Z,9.78
2018-11-02T12:48:23.325Z,9.81
2018-11-02T12:49:23.581Z,9.81
2018-11-02T12:50:23.295Z,9.78
2018-11-02T12:51:23.174Z,9.84
2018-11-02T12:52:23.165Z,9.90
2018-11-02T12:53:23.167Z,9.96
2018-11-02T12:54:23.153Z,9.99
2018-11-02T12:55:23.122Z,10.07
2018-11-02T12:56:23.155Z,10.26
2018-11-02T12:57:23.123Z,10.51
2018-11-02T12:58:23.143Z,10.60
2018-11-02T12:59:23.054Z,10.84
2018-11-02T13:00:23.031Z,10.96
2018-11-02T13:01:23.026Z,10.96
2018-11-02T13:02:23.010Z,10.96
2018-11-02T13:03:23.004Z,10.89
2018-11-02T13:04:22.976Z,10.89
2018-11-02T13:05:22.966Z,10.79
2018-11-02T13:06:22.940Z,10.78
2018-11-02T13:07:22.943Z,10.74
2018-11-02T13:08:22.975Z,10.67